createdAt,value
2023-02-21T00:01:39.790Z,6.32
2023-02-21T00:04:24.880Z,5.95
2023-02-21T00:07:10.172Z,7.10
2023-02-21T00:09:57.721Z,5.55
2023-02-21T00:12:43.172Z,5.03
2023-02-21T00:15:29.799Z,6.00
2023-02-21T00:18:14.723Z,5.10
2023-02-21T00:21:00.025Z,4.18
2023-02-21T00:23:45.209Z,4.65
2023-02-21T00:26:30.489Z,4.90
2023-02-21T00:29:15.607Z,5.43
2023-02-21T00:32:00.850Z,5.18
2023-02-21T00:34:45.965Z,5.53
2023-02-21T00:37:31.054Z,5.45
2023-02-21T00:40:16.242Z,5.00
2023-02-21T00:43:01.263Z,3.72
2023-02-21T00:45:46.194Z,4.53
2023-02-21T00:48:31.105Z,3.60
2023-02-21T00:51:16.409Z,3.97
2023-02-21T00:54:01.768Z,4.60
2023-02-21T00:56:46.976Z,3.90
2023-02-21T00:59:32.275Z,3.87
2023-02-21T01:02:17.372Z,4.20
2023-02-21T01:05:02.155Z,4.97
2023-02-21T01:07:47.317Z,5.00
2023-02-21T01:10:32.369Z,4.90
2023-02-21T01:13:17.592Z,5.43
2023-02-21T01:16:03.085Z,5.03
2023-02-21T01:18:48.226Z,5.18
2023-02-21T01:21:35.754Z,5.30
2023-02-21T01:24:21.691Z,5.40
2023-02-21T01:27:07.174Z,5.88
2023-02-21T01:29:52.391Z,6.60
2023-02-21T01:32:37.717Z,6.35
2023-02-21T01:35:23.100Z,6.37
2023-02-21T01:38:08.341Z,6.23
2023-02-21T01:40:56.153Z,6.37
2023-02-21T01:43:43.731Z,5.90
2023-02-21T01:46:31.455Z,7.17
2023-02-21T01:49:19.353Z,5.90
2023-02-21T01:52:04.757Z,6.50
2023-02-21T01:54:54.785Z,6.45
2023-02-21T01:57:40.961Z,6.57
2023-02-21T02:00:30.350Z,6.77
2023-02-21T02:03:19.790Z,5.60
2023-02-21T02:06:35.797Z,5.53
2023-02-21T02:09:34.570Z,6.33
2023-02-21T02:12:25.698Z,5.37
2023-02-21T02:15:29.805Z,5.75
2023-02-21T02:18:35.143Z,7.17
2023-02-21T02:21:39.860Z,5.80
2023-02-21T02:24:36.419Z,6.73
2023-02-21T02:27:33.005Z,6.07
2023-02-21T02:30:29.021Z,5.77
2023-02-21T02:33:26.039Z,6.23
2023-02-21T02:36:02.893Z,6.47
2023-02-21T02:38:45.497Z,6.77
2023-02-21T02:41:46.057Z,6.27
2023-02-21T02:44:20.345Z,6.40
2023-02-21T02:46:50.118Z,5.90
2023-02-21T02:49:22.234Z,6.43
2023-02-21T02:51:52.003Z,5.47
2023-02-21T02:54:19.026Z,5.90
2023-02-21T02:56:46.901Z,6.03
2023-02-21T02:59:20.593Z,6.50
2023-02-21T03:01:51.971Z,5.93
2023-02-21T03:04:36.669Z,5.53
2023-02-21T03:07:08.615Z,6.10
2023-02-21T03:10:02.884Z,5.83
2023-02-21T03:12:35.228Z,6.23
2023-02-21T03:15:15.352Z,6.30
2023-02-21T03:17:46.465Z,6.07
2023-02-21T03:22:45.122Z,5.50
2023-02-21T03:25:13.865Z,5.72
2023-02-21T03:27:44.393Z,5.87
2023-02-21T03:30:12.163Z,5.85
2023-02-21T03:32:52.157Z,6.43
2023-02-21T03:35:19.985Z,5.87
2023-02-21T03:37:52.812Z,5.70
2023-02-21T03:40:29.081Z,6.00
2023-02-21T03:42:56.753Z,5.27
2023-02-21T03:45:23.391Z,6.80
2023-02-21T03:47:50.063Z,6.33
2023-02-21T03:50:16.860Z,6.47
2023-02-21T03:52:43.457Z,6.87
2023-02-21T03:55:10.111Z,6.43
2023-02-21T03:57:36.686Z,5.80
2023-02-21T04:00:03.898Z,5.53
2023-02-21T04:02:30.507Z,6.07
2023-02-21T04:04:57.353Z,5.43
2023-02-21T04:07:23.897Z,5.43
2023-02-21T04:09:50.453Z,5.17
2023-02-21T04:12:17.293Z,6.27
2023-02-21T04:14:43.862Z,5.53
2023-02-21T04:17:10.602Z,5.90
2023-02-21T04:19:37.219Z,4.60
2023-02-21T04:22:03.872Z,5.03
2023-02-21T04:24:30.467Z,5.13
2023-02-21T04:26:57.137Z,5.17
2023-02-21T04:29:23.692Z,5.17
2023-02-21T04:31:50.559Z,5.07
2023-02-21T04:34:17.671Z,5.47
2023-02-21T04:36:44.547Z,5.57
2023-02-21T04:39:11.193Z,5.40
2023-02-21T04:41:37.763Z,6.90
2023-02-21T04:44:04.548Z,6.23
2023-02-21T04:46:31.069Z,7.23
2023-02-21T04:48:57.742Z,5.57
2023-02-21T04:51:25.861Z,6.87
2023-02-21T04:53:54.110Z,6.17
2023-02-21T04:56:23.236Z,6.47
2023-02-21T04:58:50.453Z,6.97
2023-02-21T05:01:19.597Z,6.90
2023-02-21T05:03:47.031Z,7.17
2023-02-21T05:06:21.437Z,7.47
2023-02-21T05:08:48.083Z,7.07
2023-02-21T05:11:15.526Z,6.77
2023-02-21T05:13:43.245Z,6.23
2023-02-21T05:16:09.841Z,6.80
2023-02-21T05:18:38.267Z,6.30
2023-02-21T05:21:06.981Z,6.57
2023-02-21T05:23:35.706Z,6.03
2023-02-21T05:26:13.492Z,6.07
2023-02-21T05:28:41.356Z,6.70
2023-02-21T05:31:08.909Z,5.90
2023-02-21T05:33:35.924Z,6.07
2023-02-21T05:36:02.567Z,7.00
2023-02-21T05:38:29.178Z,5.70
2023-02-21T05:40:55.741Z,6.33
2023-02-21T05:43:22.442Z,6.40
2023-02-21T05:45:48.991Z,6.93
2023-02-21T05:48:15.925Z,7.07
2023-02-21T05:50:42.478Z,6.90
2023-02-21T05:53:10.378Z,6.70
2023-02-21T05:55:37.580Z,6.40
2023-02-21T05:58:04.485Z,8.33
2023-02-21T06:00:31.586Z,8.20
2023-02-21T06:02:58.207Z,7.20
2023-02-21T06:05:24.814Z,7.57
2023-02-21T06:07:52.191Z,7.57
2023-02-21T06:10:19.197Z,8.40
2023-02-21T06:12:46.206Z,8.00
2023-02-21T06:15:13.307Z,8.40
2023-02-21T06:17:41.210Z,7.67
2023-02-21T06:20:09.040Z,8.20
2023-02-21T06:22:35.651Z,9.43
2023-02-21T06:25:02.245Z,7.63
2023-02-21T06:27:28.991Z,8.40
2023-02-21T06:29:55.578Z,7.70
2023-02-21T06:32:22.124Z,9.70
2023-02-21T06:34:48.839Z,8.17
2023-02-21T06:37:15.417Z,7.73
2023-02-21T06:39:41.979Z,8.70
2023-02-21T06:42:13.795Z,7.87
2023-02-21T06:44:40.606Z,8.87
2023-02-21T06:47:07.260Z,7.73
2023-02-21T06:49:33.840Z,6.60
2023-02-21T06:52:00.717Z,7.73
2023-02-21T06:54:27.356Z,8.00
2023-02-21T06:56:53.900Z,7.73
2023-02-21T06:59:20.396Z,7.33
2023-02-21T07:01:47.021Z,8.43
2023-02-21T07:04:13.690Z,8.43
2023-02-21T07:06:40.276Z,8.33
2023-02-21T07:09:07.561Z,7.37
2023-02-21T07:11:36.357Z,7.40
2023-02-21T07:14:03.387Z,8.10
2023-02-21T07:16:30.222Z,9.80
2023-02-21T07:18:57.383Z,7.67
2023-02-21T07:21:26.106Z,9.13
2023-02-21T07:23:52.753Z,9.00
2023-02-21T07:26:19.306Z,8.83
2023-02-21T07:28:48.868Z,8.60
2023-02-21T07:31:18.261Z,8.70
2023-02-21T07:33:46.155Z,8.77
2023-02-21T07:36:12.859Z,9.07
2023-02-21T07:38:39.970Z,10.07
2023-02-21T07:41:06.609Z,9.17
2023-02-21T07:43:33.328Z,7.67
2023-02-21T07:46:00.234Z,8.67
2023-02-21T07:48:26.927Z,8.63
2023-02-21T07:50:53.570Z,10.63
2023-02-21T07:53:20.277Z,8.63
2023-02-21T07:55:46.938Z,9.00
2023-02-21T07:58:13.574Z,9.03
2023-02-21T08:00:40.693Z,9.83
2023-02-21T08:03:07.974Z,9.13
2023-02-21T08:05:34.587Z,9.37
2023-02-21T08:08:01.158Z,9.93
2023-02-21T08:10:29.429Z,9.77
2023-02-21T08:12:56.015Z,8.93
2023-02-21T08:15:23.124Z,8.77
2023-02-21T08:17:50.217Z,10.53
2023-02-21T08:20:17.625Z,10.90
2023-02-21T08:22:44.357Z,9.80
2023-02-21T08:25:12.830Z,9.90
2023-02-21T08:27:41.089Z,9.13
2023-02-21T08:30:09.958Z,11.60
2023-02-21T08:32:37.093Z,12.43
2023-02-21T08:35:06.315Z,12.53
2023-02-21T08:37:36.293Z,13.00
2023-02-21T08:40:04.406Z,10.82
2023-02-21T08:42:31.069Z,9.80
2023-02-21T08:44:57.784Z,10.27
2023-02-21T08:47:24.777Z,11.90
2023-02-21T08:49:51.336Z,11.48
2023-02-21T08:52:21.143Z,12.23
2023-02-21T08:54:48.085Z,10.98
2023-02-21T08:57:14.940Z,11.80
2023-02-21T08:59:43.001Z,10.15
2023-02-21T09:02:17.421Z,10.07
2023-02-21T09:04:45.417Z,9.05
2023-02-21T09:07:16.834Z,8.98
2023-02-21T09:09:43.529Z,8.88
2023-02-21T09:12:11.016Z,9.20
2023-02-21T09:14:39.418Z,9.63
2023-02-21T09:17:08.290Z,7.88
2023-02-21T09:19:35.154Z,8.45
2023-02-21T09:22:03.021Z,8.02
2023-02-21T09:24:29.650Z,8.45
2023-02-21T09:27:04.174Z,8.90
2023-02-21T09:29:44.943Z,11.82
2023-02-21T09:32:11.923Z,13.00
2023-02-21T09:34:39.894Z,10.05
2023-02-21T09:37:07.016Z,9.07
2023-02-21T09:39:33.620Z,9.18
2023-02-21T09:42:00.266Z,8.43
2023-02-21T09:44:29.197Z,8.73
2023-02-21T09:47:02.757Z,9.25
2023-02-21T09:49:37.293Z,8.50
2023-02-21T09:52:04.370Z,8.73
2023-02-21T09:54:38.184Z,8.85
2023-02-21T09:57:07.136Z,9.63
2023-02-21T09:59:33.776Z,11.32
2023-02-21T10:02:10.827Z,12.55
2023-02-21T10:04:53.061Z,12.20
2023-02-21T10:07:45.406Z,11.63
2023-02-21T10:10:14.998Z,12.93
2023-02-21T10:13:09.566Z,11.88
2023-02-21T10:16:13.913Z,13.38
2023-02-21T10:18:53.765Z,13.40
2023-02-21T10:21:30.618Z,14.77
2023-02-21T10:24:00.584Z,13.40
2023-02-21T10:26:29.947Z,12.40
2023-02-21T10:28:57.261Z,12.77
2023-02-21T10:31:34.560Z,12.55
2023-02-21T10:34:03.821Z,12.50
2023-02-21T10:36:30.495Z,13.30
2023-02-21T10:39:11.823Z,12.18
2023-02-21T10:41:41.268Z,13.20
2023-02-21T10:44:13.089Z,12.50
2023-02-21T10:47:08.184Z,13.10
2023-02-21T10:49:54.893Z,13.82
2023-02-21T10:52:21.567Z,13.32
2023-02-21T10:55:31.462Z,12.73
2023-02-21T10:58:07.546Z,12.32
2023-02-21T11:00:48.487Z,12.30
2023-02-21T11:05:58.170Z,12.05
2023-02-21T11:08:39.958Z,11.93
2023-02-21T11:11:07.419Z,11.20
2023-02-21T11:13:36.199Z,11.13
2023-02-21T11:16:17.630Z,11.40
2023-02-21T11:18:44.725Z,10.88
2023-02-21T11:21:19.315Z,11.57
2023-02-21T11:24:02.621Z,10.32
2023-02-21T11:26:38.728Z,10.98
2023-02-21T11:29:19.914Z,10.85
2023-02-21T11:31:46.913Z,10.73
2023-02-21T11:34:14.868Z,11.00
2023-02-21T11:36:44.227Z,11.25
2023-02-21T11:39:19.747Z,10.77
2023-02-21T11:41:53.616Z,10.30
2023-02-21T11:44:26.293Z,11.48
2023-02-21T11:47:19.215Z,12.75
2023-02-21T11:50:10.657Z,11.63
2023-02-21T11:52:56.775Z,10.85
2023-02-21T11:55:26.525Z,12.52
2023-02-21T11:58:25.632Z,11.18
2023-02-21T12:01:05.837Z,10.60
2023-02-21T12:03:50.546Z,10.00
2023-02-21T12:06:47.532Z,10.95
2023-02-21T12:09:40.521Z,11.10
2023-02-21T12:12:28.694Z,10.15
2023-02-21T12:15:16.445Z,11.68
2023-02-21T12:17:59.493Z,9.27
2023-02-21T12:20:33.487Z,10.60
2023-02-21T12:23:25.581Z,8.73
2023-02-21T12:25:58.355Z,9.10
2023-02-21T12:28:46.673Z,8.27
2023-02-21T12:31:35.113Z,7.60
2023-02-21T12:34:29.703Z,7.97
2023-02-21T12:37:08.808Z,8.35
2023-02-21T12:40:09.212Z,7.63
2023-02-21T12:42:40.081Z,7.82
2023-02-21T12:48:00.380Z,8.65
2023-02-21T12:50:43.729Z,8.80
2023-02-21T12:53:26.015Z,10.40
2023-02-21T12:55:59.712Z,8.55
2023-02-21T12:58:43.711Z,10.93
2023-02-21T13:01:20.842Z,5.70
2023-02-21T13:04:25.825Z,4.93
2023-02-21T13:06:58.602Z,6.82
2023-02-21T13:09:34.497Z,8.02
2023-02-21T13:12:18.544Z,8.40
2023-02-21T13:14:56.492Z,7.55
2023-02-21T13:17:23.797Z,7.18
2023-02-21T13:20:06.325Z,6.90
2023-02-21T13:23:29.326Z,7.18
2023-02-21T13:26:10.827Z,5.55
2023-02-21T13:28:38.915Z,5.63
2023-02-21T13:31:17.554Z,12.27
2023-02-21T13:33:49.042Z,6.93
2023-02-21T13:36:18.707Z,7.68
2023-02-21T13:38:45.482Z,6.22
2023-02-21T13:41:16.935Z,7.72
2023-02-21T13:43:52.854Z,6.82
2023-02-21T13:46:42.757Z,6.93
2023-02-21T13:49:39.413Z,8.00
2023-02-21T13:52:23.998Z,6.80
2023-02-21T13:55:08.955Z,6.43
2023-02-21T13:57:43.196Z,6.60
2023-02-21T14:00:22.102Z,14.73
2023-02-21T14:03:05.494Z,7.35
2023-02-21T14:05:44.196Z,7.72
2023-02-21T14:08:31.342Z,7.72
2023-02-21T14:11:06.937Z,10.45
2023-02-21T14:13:36.336Z,8.85
2023-02-21T14:16:12.067Z,9.68
2023-02-21T14:18:38.742Z,8.95
2023-02-21T14:21:10.971Z,6.80
2023-02-21T14:23:48.352Z,6.22
2023-02-21T14:26:36.085Z,6.07
2023-02-21T14:29:14.748Z,6.40
2023-02-21T14:32:03.585Z,6.57
2023-02-21T14:34:38.446Z,5.75
2023-02-21T14:37:17.372Z,6.57
2023-02-21T14:39:47.803Z,6.20
2023-02-21T14:42:38.513Z,6.55
2023-02-21T14:45:10.951Z,5.70
2023-02-21T14:48:19.302Z,5.47
2023-02-21T14:51:36.640Z,6.00
2023-02-21T14:54:21.942Z,6.07
2023-02-21T14:56:51.465Z,6.03
2023-02-21T14:59:42.560Z,7.50
2023-02-21T15:05:10.354Z,5.80
2023-02-21T15:07:49.244Z,6.35
2023-02-21T15:10:25.823Z,5.95
2023-02-21T15:13:00.263Z,6.20
2023-02-21T15:15:44.903Z,6.38
2023-02-21T15:18:24.240Z,5.50
2023-02-21T15:21:11.565Z,5.60
2023-02-21T15:23:40.250Z,5.88
2023-02-21T15:26:19.205Z,5.40
2023-02-21T15:28:46.520Z,5.97
2023-02-21T15:31:14.473Z,5.30
2023-02-21T15:33:44.044Z,5.68
2023-02-21T15:36:22.665Z,5.20
2023-02-21T15:38:53.732Z,5.30
2023-02-21T15:41:40.400Z,5.68
2023-02-21T15:44:16.420Z,5.18
2023-02-21T15:46:51.619Z,5.13
2023-02-21T15:49:26.008Z,5.07
2023-02-21T15:51:52.931Z,5.32
2023-02-21T15:54:31.594Z,4.95
2023-02-21T15:57:13.215Z,6.00
2023-02-21T15:59:40.246Z,5.82
2023-02-21T16:02:15.959Z,5.45
2023-02-21T16:04:47.617Z,5.65
2023-02-21T16:07:37.370Z,6.45
2023-02-21T16:10:08.144Z,5.35
2023-02-21T16:12:45.748Z,5.57
2023-02-21T16:15:18.021Z,5.60
2023-02-21T16:17:46.076Z,4.85
2023-02-21T16:20:16.677Z,5.95
2023-02-21T16:23:06.869Z,5.10
2023-02-21T16:25:34.204Z,5.65
2023-02-21T16:28:02.165Z,5.60
2023-02-21T16:30:30.905Z,5.75
2023-02-21T16:33:05.922Z,5.13
2023-02-21T16:35:34.117Z,5.28
2023-02-21T16:38:01.875Z,5.15
2023-02-21T16:40:34.042Z,5.25
2023-02-21T16:43:02.098Z,4.53
2023-02-21T16:45:30.102Z,5.05
2023-02-21T16:47:59.283Z,5.13
2023-02-21T16:50:32.621Z,6.00
2023-02-21T16:53:00.546Z,5.40
2023-02-21T16:55:28.267Z,4.90
2023-02-21T16:58:00.118Z,5.60
2023-02-21T17:00:26.796Z,6.18
2023-02-21T17:02:53.678Z,4.97
2023-02-21T17:05:21.891Z,5.00
2023-02-21T17:07:49.817Z,4.45
2023-02-21T17:10:16.517Z,5.10
2023-02-21T17:12:44.120Z,6.18
2023-02-21T17:15:14.919Z,5.38
2023-02-21T17:17:44.414Z,5.05
2023-02-21T17:20:17.891Z,4.80
2023-02-21T17:22:44.552Z,4.65
2023-02-21T17:25:11.530Z,4.85
2023-02-21T17:27:38.206Z,4.43
2023-02-21T17:30:06.648Z,4.68
2023-02-21T17:32:33.541Z,3.97
2023-02-21T17:35:00.489Z,4.25
2023-02-21T17:37:27.166Z,5.78
2023-02-21T17:39:55.440Z,4.85
2023-02-21T17:42:23.373Z,5.13
2023-02-21T17:44:53.373Z,4.68
2023-02-21T17:47:22.064Z,4.77
2023-02-21T17:49:50.631Z,4.65
2023-02-21T17:52:17.671Z,4.15
2023-02-21T17:54:44.285Z,4.60
2023-02-21T17:57:10.911Z,5.40
2023-02-21T17:59:38.089Z,6.05
2023-02-21T18:02:05.189Z,5.10
2023-02-21T18:04:32.008Z,5.15
2023-02-21T18:06:58.696Z,5.95
2023-02-21T18:09:25.826Z,6.28
2023-02-21T18:11:54.621Z,6.15
2023-02-21T18:14:22.648Z,5.50
2023-02-21T18:16:49.285Z,4.78
2023-02-21T18:19:16.000Z,5.07
2023-02-21T18:21:45.626Z,5.18
2023-02-21T18:24:13.332Z,5.60
2023-02-21T18:26:43.417Z,4.80
2023-02-21T18:29:09.945Z,4.55
2023-02-21T18:31:36.552Z,4.22
2023-02-21T18:34:03.958Z,4.63
2023-02-21T18:36:31.350Z,4.20
2023-02-21T18:38:57.867Z,4.63
2023-02-21T18:41:24.604Z,5.10
2023-02-21T18:43:51.768Z,7.50
2023-02-21T18:46:21.247Z,7.00
2023-02-21T18:48:49.898Z,7.88
2023-02-21T18:51:20.045Z,7.70
2023-02-21T18:53:50.181Z,7.30
2023-02-21T18:56:19.436Z,7.95
2023-02-21T18:58:47.343Z,7.00
2023-02-21T19:01:16.365Z,6.95
2023-02-21T19:03:43.155Z,6.90
2023-02-21T19:06:12.917Z,6.28
2023-02-21T19:08:39.924Z,6.53
2023-02-21T19:11:06.642Z,6.60
2023-02-21T19:13:33.183Z,6.15
2023-02-21T19:16:00.553Z,6.70
2023-02-21T19:18:28.126Z,6.93
2023-02-21T19:20:54.937Z,5.78
2023-02-21T19:23:21.573Z,6.63
2023-02-21T19:25:48.161Z,7.35
2023-02-21T19:28:14.778Z,6.90
2023-02-21T19:30:41.429Z,6.97
2023-02-21T19:33:08.637Z,7.55
2023-02-21T19:35:35.950Z,7.90
2023-02-21T19:38:08.311Z,7.88
2023-02-21T19:40:36.364Z,7.60
2023-02-21T19:43:03.030Z,8.15
2023-02-21T19:45:30.606Z,8.05
2023-02-21T19:47:57.231Z,7.90
2023-02-21T19:50:24.088Z,7.28
2023-02-21T19:52:56.121Z,7.00
2023-02-21T19:55:23.929Z,6.10
2023-02-21T19:57:50.480Z,6.03
2023-02-21T20:00:17.622Z,6.65
2023-02-21T20:02:44.586Z,6.80
2023-02-21T20:05:13.998Z,6.15
2023-02-21T20:07:41.598Z,6.30
2023-02-21T20:10:09.909Z,6.32
2023-02-21T20:12:36.894Z,6.75
2023-02-21T20:15:04.972Z,6.30
2023-02-21T20:17:31.547Z,6.88
2023-02-21T20:19:58.102Z,7.70
2023-02-21T20:22:25.608Z,6.70
2023-02-21T20:24:52.159Z,8.93
2023-02-21T20:27:18.740Z,8.30
2023-02-21T20:29:46.853Z,7.75
2023-02-21T20:32:15.735Z,8.07
2023-02-21T20:34:42.322Z,6.78
2023-02-21T20:37:12.046Z,7.15
2023-02-21T20:39:38.630Z,7.30
2023-02-21T20:42:08.311Z,6.53
2023-02-21T20:44:37.691Z,7.30
2023-02-21T20:47:05.730Z,6.20
2023-02-21T20:49:32.330Z,7.32
2023-02-21T20:51:58.908Z,7.80
2023-02-21T20:54:25.597Z,6.90
2023-02-21T20:56:55.220Z,7.72
2023-02-21T20:59:25.340Z,7.55
2023-02-21T21:01:52.431Z,8.10
2023-02-21T21:04:27.172Z,8.13
2023-02-21T21:07:00.846Z,8.35
2023-02-21T21:09:34.360Z,8.93
2023-02-21T21:12:03.414Z,8.13
2023-02-21T21:14:31.856Z,9.82
2023-02-21T21:17:00.054Z,8.43
2023-02-21T21:19:28.326Z,9.55
2023-02-21T21:21:54.904Z,8.15
2023-02-21T21:24:21.604Z,7.70
2023-02-21T21:26:53.206Z,6.55
2023-02-21T21:29:22.639Z,7.20
2023-02-21T21:31:50.573Z,6.75
2023-02-21T21:34:23.012Z,7.00
2023-02-21T21:36:51.900Z,6.32
2023-02-21T21:39:23.146Z,7.55
2023-02-21T21:41:55.002Z,7.18
2023-02-21T21:44:25.609Z,6.55
2023-02-21T21:46:53.547Z,6.47
2023-02-21T21:49:23.175Z,6.30
2023-02-21T21:51:50.223Z,6.32
2023-02-21T21:54:20.707Z,7.10
2023-02-21T21:56:48.698Z,6.57
2023-02-21T21:59:20.534Z,6.18
2023-02-21T22:01:47.888Z,5.30
2023-02-21T22:04:14.680Z,5.65
2023-02-21T22:06:41.956Z,5.97
2023-02-21T22:09:09.705Z,6.43
2023-02-21T22:11:36.793Z,6.47
2023-02-21T22:14:03.685Z,6.13
2023-02-21T22:16:42.561Z,5.95
2023-02-21T22:19:09.293Z,5.85
2023-02-21T22:21:36.899Z,4.55
2023-02-21T22:24:04.990Z,5.32
2023-02-21T22:26:32.044Z,5.95
2023-02-21T22:28:58.632Z,5.45
2023-02-21T22:31:27.224Z,5.25
2023-02-21T22:33:59.201Z,5.47
2023-02-21T22:36:26.366Z,5.90
2023-02-21T22:38:54.922Z,5.85
2023-02-21T22:41:27.186Z,6.68
2023-02-21T22:43:55.622Z,6.05
2023-02-21T22:46:24.772Z,6.50
2023-02-21T22:48:51.984Z,6.55
2023-02-21T22:51:24.745Z,6.82
2023-02-21T22:53:51.333Z,6.20
2023-02-21T22:56:23.499Z,6.27
2023-02-21T22:58:51.187Z,5.57
2023-02-21T23:01:20.961Z,5.13
2023-02-21T23:03:48.198Z,5.15
2023-02-21T23:06:15.177Z,5.00
2023-02-21T23:08:47.949Z,5.15
2023-02-21T23:11:23.958Z,4.82
2023-02-21T23:13:52.258Z,5.38
2023-02-21T23:16:25.172Z,5.88
2023-02-21T23:18:51.734Z,4.87
2023-02-21T23:21:22.970Z,6.10
2023-02-21T23:23:50.755Z,4.93
2023-02-21T23:26:19.737Z,5.07
2023-02-21T23:28:50.046Z,5.50
2023-02-21T23:31:18.758Z,5.68
2023-02-21T23:33:48.753Z,4.60
2023-02-21T23:36:22.668Z,5.47
2023-02-21T23:38:50.685Z,5.23
2023-02-21T23:41:18.278Z,5.10
2023-02-21T23:43:48.735Z,5.23
2023-02-21T23:46:22.138Z,6.03
2023-02-21T23:48:49.612Z,5.77
2023-02-21T23:51:18.000Z,5.55
2023-02-21T23:53:45.417Z,5.43
2023-02-21T23:56:13.254Z,5.77
2023-02-21T23:58:44.354Z,6.33
